createdAt,value
2023-02-12T00:02:20.903Z,37.80
2023-02-12T00:07:22.688Z,33.80
2023-02-12T00:12:42.081Z,41.27
2023-02-12T00:17:52.397Z,39.47
2023-02-12T00:23:11.500Z,38.40
2023-02-12T00:28:48.945Z,36.37
2023-02-12T00:34:09.057Z,39.73
2023-02-12T00:39:23.380Z,35.33
2023-02-12T00:44:25.245Z,35.13
2023-02-12T00:56:02.259Z,37.53
2023-02-12T01:01:07.909Z,39.47
2023-02-12T01:06:18.632Z,39.87
2023-02-12T01:12:06.858Z,40.17
2023-02-12T01:17:30.582Z,44.20
2023-02-12T01:22:41.931Z,56.33
2023-02-12T01:27:47.900Z,44.50
2023-02-12T01:33:07.548Z,41.63
2023-02-12T01:38:16.513Z,42.33
2023-02-12T01:43:33.022Z,41.73
2023-02-12T01:48:49.672Z,42.63
2023-02-12T01:54:07.607Z,44.87
2023-02-12T01:59:13.498Z,43.70
2023-02-12T02:04:45.042Z,37.23
2023-02-12T02:09:55.241Z,43.53
2023-02-12T02:15:01.183Z,44.10
2023-02-12T02:20:16.770Z,44.63
2023-02-12T02:25:49.178Z,44.37
2023-02-12T02:30:58.751Z,46.53
2023-02-12T02:36:26.076Z,40.70
2023-02-12T02:42:15.464Z,42.67
2023-02-12T02:47:56.664Z,46.43
2023-02-12T02:54:03.994Z,48.47
2023-02-12T02:59:40.020Z,42.27
2023-02-12T03:04:54.352Z,46.67
2023-02-12T03:10:13.820Z,48.60
2023-02-12T03:15:53.524Z,39.47
2023-02-12T03:21:14.458Z,41.63
2023-02-12T03:26:32.429Z,50.57
2023-02-12T03:32:00.469Z,40.67
2023-02-12T03:37:08.415Z,46.23
2023-02-12T03:42:37.834Z,49.77
2023-02-12T03:48:10.290Z,47.87
2023-02-12T03:53:28.052Z,54.23
2023-02-12T03:58:40.251Z,45.00
2023-02-12T04:03:54.435Z,48.30
2023-02-12T04:09:15.580Z,48.30
2023-02-12T04:15:02.060Z,42.33
2023-02-12T04:20:37.525Z,44.30
2023-02-12T04:25:46.270Z,47.83
2023-02-12T04:31:10.612Z,38.73
2023-02-12T04:36:45.589Z,44.17
2023-02-12T04:41:49.862Z,43.20
2023-02-12T04:47:21.931Z,37.83
2023-02-12T04:52:27.544Z,42.70
2023-02-12T04:57:42.083Z,42.77
2023-02-12T05:02:58.389Z,37.90
2023-02-12T05:08:06.725Z,37.87
2023-02-12T05:13:17.462Z,44.30
2023-02-12T05:18:32.059Z,40.50
2023-02-12T05:23:49.923Z,37.30
2023-02-12T05:29:14.393Z,42.50
2023-02-12T05:34:32.309Z,45.80
2023-02-12T05:39:34.102Z,42.63
2023-02-12T05:44:42.095Z,42.90
2023-02-12T05:49:46.395Z,40.10
2023-02-12T05:54:51.599Z,45.03
2023-02-12T06:05:24.961Z,38.20
2023-02-12T06:10:45.035Z,44.60
2023-02-12T06:16:01.593Z,42.23
2023-02-12T06:21:06.485Z,44.27
2023-02-12T06:26:20.893Z,48.03
2023-02-12T06:31:37.299Z,43.37
2023-02-12T06:36:57.079Z,58.23
2023-02-12T06:42:14.622Z,48.53
2023-02-12T06:47:21.019Z,44.37
2023-02-12T06:52:27.404Z,46.97
2023-02-12T06:57:35.830Z,49.63
2023-02-12T07:03:12.780Z,54.50
2023-02-12T07:08:17.881Z,45.77
2023-02-12T07:13:37.573Z,46.40
2023-02-12T07:18:59.002Z,49.23
2023-02-12T07:24:05.300Z,48.30
2023-02-12T07:29:19.668Z,77.07
2023-02-12T07:41:27.896Z,159.33
2023-02-12T07:46:47.825Z,98.30
2023-02-12T07:52:30.619Z,52.83
2023-02-12T07:57:32.356Z,43.73
2023-02-12T08:02:36.800Z,48.13
2023-02-12T08:08:43.218Z,50.73
2023-02-12T08:19:40.248Z,45.17
2023-02-12T08:24:56.371Z,41.30
2023-02-12T08:43:35.337Z,39.17
2023-02-12T08:59:41.052Z,34.57
2023-02-12T09:04:59.146Z,43.00
2023-02-12T09:16:10.064Z,38.77
2023-02-12T09:26:37.971Z,41.63
2023-02-12T09:31:46.059Z,36.87
2023-02-12T09:36:54.730Z,35.00
2023-02-12T09:42:39.542Z,33.60
2023-02-12T09:53:51.217Z,31.20
2023-02-12T09:59:00.477Z,29.53
2023-02-12T10:04:07.249Z,30.30
2023-02-12T10:09:46.500Z,27.50
2023-02-12T10:15:50.419Z,22.00
2023-02-12T10:21:11.213Z,18.10
2023-02-12T10:26:39.922Z,21.33
2023-02-12T10:31:48.494Z,21.83
2023-02-12T10:36:54.417Z,18.73
2023-02-12T10:42:18.303Z,19.63
2023-02-12T10:47:29.460Z,21.50
2023-02-12T10:53:04.986Z,19.80
2023-02-12T10:58:46.381Z,17.67
2023-02-12T11:03:51.644Z,18.73
2023-02-12T11:09:00.842Z,19.00
2023-02-12T11:14:34.082Z,16.83
2023-02-12T11:19:43.316Z,17.97
2023-02-12T11:24:46.892Z,15.27
2023-02-12T11:30:45.545Z,15.10
2023-02-12T11:36:07.699Z,19.40
2023-02-12T11:41:58.030Z,17.10
2023-02-12T11:47:27.313Z,14.27
2023-02-12T11:52:54.591Z,12.93
2023-02-12T11:58:35.949Z,15.70
2023-02-12T12:04:35.291Z,13.23
2023-02-12T12:09:52.457Z,16.73
2023-02-12T12:15:24.617Z,13.83
2023-02-12T12:21:32.420Z,12.07
2023-02-12T12:26:34.736Z,14.80
2023-02-12T12:31:41.059Z,14.00
2023-02-12T12:37:23.668Z,10.63
2023-02-12T12:43:06.864Z,13.47
2023-02-12T12:48:52.188Z,13.63
2023-02-12T12:55:04.054Z,12.30
2023-02-12T13:00:29.741Z,11.93
2023-02-12T13:06:16.127Z,10.60
2023-02-12T13:11:55.937Z,11.53
2023-02-12T13:22:36.715Z,11.83
2023-02-12T13:27:55.930Z,18.03
2023-02-12T13:33:53.562Z,8.80
2023-02-12T13:40:19.068Z,13.67
2023-02-12T13:45:34.227Z,11.23
2023-02-12T13:51:07.992Z,11.20
2023-02-12T13:56:31.276Z,9.00
2023-02-12T14:01:52.579Z,9.53
2023-02-12T14:07:07.827Z,11.50
2023-02-12T14:12:35.833Z,11.57
2023-02-12T14:23:48.181Z,12.80
2023-02-12T14:29:29.891Z,12.33
2023-02-12T14:34:33.994Z,12.77
2023-02-12T14:39:44.501Z,11.07
2023-02-12T14:51:16.238Z,10.97
2023-02-12T14:56:56.570Z,9.33
2023-02-12T15:19:37.601Z,11.17
2023-02-12T15:24:45.884Z,11.07
2023-02-12T15:30:25.636Z,11.27
2023-02-12T15:41:54.774Z,9.73
2023-02-12T15:47:17.959Z,13.27
2023-02-12T15:59:30.386Z,12.40
2023-02-12T16:04:37.453Z,14.27
2023-02-12T16:09:49.113Z,19.03
2023-02-12T16:15:02.683Z,14.33
2023-02-12T16:20:29.756Z,10.10
2023-02-12T16:25:43.378Z,13.73
2023-02-12T16:31:14.624Z,17.53
2023-02-12T16:37:01.685Z,13.63
2023-02-12T16:42:37.702Z,15.63
2023-02-12T16:47:42.918Z,11.53
2023-02-12T16:52:53.137Z,13.07
2023-02-12T16:58:02.177Z,13.17
2023-02-12T17:03:09.035Z,10.50
2023-02-12T17:08:41.925Z,10.57
2023-02-12T17:13:55.352Z,12.17
2023-02-12T17:19:09.117Z,12.27
2023-02-12T17:24:31.807Z,10.23
2023-02-12T17:35:18.198Z,12.40
2023-02-12T17:40:23.554Z,13.07
2023-02-12T17:45:25.280Z,14.23
2023-02-12T17:50:29.931Z,10.47
2023-02-12T17:55:39.928Z,9.77
2023-02-12T18:01:08.263Z,12.97
2023-02-12T18:12:59.567Z,13.33
2023-02-12T18:18:01.752Z,14.03
2023-02-12T18:29:11.378Z,11.50
2023-02-12T18:34:14.143Z,11.27
2023-02-12T18:39:16.089Z,15.13
2023-02-12T18:49:43.773Z,13.43
2023-02-12T18:55:11.344Z,14.10
2023-02-12T19:00:18.620Z,14.87
2023-02-12T19:06:32.429Z,11.93
2023-02-12T19:11:55.350Z,15.43
2023-02-12T19:17:21.103Z,17.53
2023-02-12T19:23:14.074Z,16.47
2023-02-12T19:28:30.409Z,21.53
2023-02-12T19:33:48.242Z,15.13
2023-02-12T19:39:16.153Z,16.33
2023-02-12T19:44:27.143Z,14.47
2023-02-12T19:49:35.696Z,16.00
2023-02-12T19:55:04.562Z,13.97
2023-02-12T20:00:13.346Z,15.53
2023-02-12T20:05:27.625Z,15.43
2023-02-12T20:11:21.633Z,16.03
2023-02-12T20:17:08.964Z,14.37
2023-02-12T20:22:13.386Z,16.70
2023-02-12T20:27:18.539Z,18.07
2023-02-12T20:32:27.162Z,15.70
2023-02-12T20:37:41.423Z,15.43
2023-02-12T20:42:59.584Z,15.63
2023-02-12T20:55:14.851Z,21.40
2023-02-12T21:25:48.730Z,20.33
2023-02-12T21:42:14.815Z,18.27
2023-02-12T21:47:25.616Z,19.73
2023-02-12T21:52:47.797Z,20.60
2023-02-12T22:03:48.920Z,20.30
2023-02-12T22:09:06.510Z,19.77
2023-02-12T22:19:46.004Z,19.00
2023-02-12T22:24:57.208Z,19.93
2023-02-12T22:30:05.676Z,18.60
2023-02-12T22:35:19.070Z,21.53
2023-02-12T22:40:31.995Z,19.87
2023-02-12T22:45:33.830Z,17.70
2023-02-12T22:50:37.014Z,19.10
2023-02-12T22:55:42.010Z,17.27
2023-02-12T23:00:46.766Z,20.53
2023-02-12T23:06:02.857Z,17.73
2023-02-12T23:11:13.287Z,18.27
2023-02-12T23:16:20.408Z,18.37
2023-02-12T23:21:22.485Z,16.73
2023-02-12T23:26:32.439Z,19.43
2023-02-12T23:31:35.546Z,16.57
2023-02-12T23:36:40.525Z,19.67
2023-02-12T23:41:51.116Z,19.00
2023-02-12T23:46:57.762Z,18.33
2023-02-12T23:52:08.508Z,19.57
2023-02-12T23:57:12.873Z,19.50
